Time;durP1;ratioP1;P1;durP2;ratioP2;P2;SDS_P1;SDS_P2;PMS_P1;PMS_P2;Temp;Humidity;BMP_temperature;BMP_pressure;BME280_temperature;BME280_humidity;BME280_pressure;Samples;Min_cycle;Max_cycle;Signal;HPM_P1;HPM_P2
2023/06/11 00:00:01;;;;;;;8.75;3.65;;;11.10;78.50;;;;;;6274667;22;20003;-67
2023/06/11 00:02:33;;;;;;;5.70;3.42;;;11.10;78.10;;;;;;6275163;22;20426;-67
2023/06/11 00:05:04;;;;;;;9.75;4.10;;;11.20;78.30;;;;;;6275539;22;20017;-67
2023/06/11 00:07:32;;;;;;;9.30;3.70;;;11.20;78.20;;;;;;6274752;22;20071;-67
2023/06/11 00:09:59;;;;;;;7.35;3.55;;;11.20;78.20;;;;;;6274808;22;20308;-67
2023/06/11 00:12:27;;;;;;;8.88;3.40;;;11.20;78.10;;;;;;6275542;22;20014;-66
2023/06/11 00:14:55;;;;;;;7.68;3.78;;;11.30;78.20;;;;;;6269096;22;20042;-66
2023/06/11 00:17:22;;;;;;;6.90;3.20;;;11.30;78.00;;;;;;6271249;22;20434;-66
2023/06/11 00:19:50;;;;;;;6.82;3.58;;;11.30;77.90;;;;;;6271911;22;20020;-67
2023/06/11 00:22:17;;;;;;;6.60;3.60;;;11.40;77.70;;;;;;6271744;22;20011;-66
2023/06/11 00:24:46;;;;;;;9.88;3.50;;;11.50;77.50;;;;;;6244966;22;20016;-66
2023/06/11 00:27:13;;;;;;;7.45;3.70;;;11.50;77.00;;;;;;6271540;22;20010;-67
2023/06/11 00:29:41;;;;;;;9.75;3.63;;;11.60;76.80;;;;;;6271995;22;20323;-67
2023/06/11 00:32:08;;;;;;;8.00;3.40;;;11.60;76.60;;;;;;6271811;22;20008;-66
2023/06/11 00:34:36;;;;;;;6.65;3.20;;;11.60;76.40;;;;;;6271589;22;19999;-67
2023/06/11 00:37:03;;;;;;;9.30;3.10;;;11.70;76.20;;;;;;6271926;22;20375;-66
2023/06/11 00:39:31;;;;;;;8.85;3.22;;;11.70;76.00;;;;;;6271944;22;20012;-67
2023/06/11 00:41:59;;;;;;;9.00;3.35;;;11.70;75.80;;;;;;6272155;22;20437;-67
2023/06/11 00:44:29;;;;;;;5.05;2.78;;;11.70;75.70;;;;;;6272045;22;20033;-66
2023/06/11 00:46:58;;;;;;;10.60;3.97;;;11.70;75.60;;;;;;6271964;22;20086;-67
2023/06/11 00:49:25;;;;;;;6.00;3.22;;;11.80;75.40;;;;;;6270704;22;20014;-68
2023/06/11 00:51:53;;;;;;;6.75;2.67;;;11.80;75.10;;;;;;6243560;22;20007;-66
2023/06/11 00:54:20;;;;;;;6.80;3.03;;;11.90;74.90;;;;;;6271110;22;20338;-67
2023/06/11 00:56:48;;;;;;;8.25;3.15;;;11.90;74.70;;;;;;6270983;22;20008;-66
2023/06/11 00:59:17;;;;;;;7.80;3.08;;;12.00;74.50;;;;;;6269203;22;20456;-67
2023/06/11 01:01:56;;;;;;;8.68;3.42;;;12.00;74.30;;;;;;6271189;22;20003;-67
2023/06/11 01:04:23;;;;;;;8.63;3.33;;;12.10;74.10;;;;;;6219512;22;20038;-66
2023/06/11 01:06:54;;;;;;;5.93;2.78;;;12.10;73.60;;;;;;6219478;22;20291;-66
2023/06/11 01:09:22;;;;;;;5.82;2.72;;;12.10;73.70;;;;;;6245164;22;20034;-66
2023/06/11 01:49:05;;;;;;;8.80;3.08;;;12.80;71.10;;;;;;6267311;22;19926;-66
2023/06/11 01:51:33;;;;;;;8.05;2.40;;;12.80;70.60;;;;;;6273166;22;20015;-67
2023/06/11 01:54:00;;;;;;;8.38;2.70;;;12.90;70.30;;;;;;6272752;22;20521;-66
2023/06/11 01:56:28;;;;;;;8.80;2.97;;;12.90;70.10;;;;;;6272138;22;20062;-67
2023/06/11 01:58:57;;;;;;;6.88;2.50;;;12.90;70.20;;;;;;6272813;22;20363;-66
2023/06/11 02:01:25;;;;;;;6.65;2.45;;;13.00;70.10;;;;;;6273087;22;20054;-66
2023/06/11 02:03:52;;;;;;;7.40;2.60;;;13.00;70.10;;;;;;6273156;22;20438;-67
2023/06/11 02:06:20;;;;;;;5.53;2.67;;;13.10;70.00;;;;;;6273047;22;20390;-66
2023/06/11 02:08:47;;;;;;;8.25;2.55;;;13.10;70.00;;;;;;6273254;22;20007;-66
2023/06/11 02:11:15;;;;;;;5.47;2.28;;;13.10;69.60;;;;;;6273548;22;20011;-67
2023/06/11 02:13:42;;;;;;;7.95;2.47;;;13.10;69.30;;;;;;6272948;22;20014;-67
2023/06/11 02:16:10;;;;;;;6.28;2.55;;;13.20;69.20;;;;;;6272133;22;20330;-67
2023/06/11 02:18:37;;;;;;;6.07;2.50;;;13.20;69.10;;;;;;6272939;22;20000;-67
2023/06/11 02:21:04;;;;;;;6.25;2.53;;;13.20;68.90;;;;;;6274192;22;20025;-69
2023/06/11 02:23:32;;;;;;;6.20;2.60;;;13.30;68.80;;;;;;6272612;22;20016;-66
2023/06/11 02:25:59;;;;;;;6.93;2.65;;;13.30;68.70;;;;;;6272792;22;20030;-67
2023/06/11 02:28:27;;;;;;;6.13;2.50;;;13.30;68.80;;;;;;6272280;22;20008;-67
2023/06/11 02:30:54;;;;;;;7.35;2.60;;;13.40;68.30;;;;;;6273146;22;20028;-68
2023/06/11 02:33:21;;;;;;;6.03;2.47;;;13.40;68.40;;;;;;6273653;22;20027;-68
2023/06/11 02:35:49;;;;;;;6.55;2.33;;;13.50;67.90;;;;;;6273390;22;20421;-67
2023/06/11 02:38:16;;;;;;;8.70;2.78;;;13.50;67.80;;;;;;6272688;22;20069;-68
2023/06/11 02:40:44;;;;;;;8.07;2.55;;;13.50;68.10;;;;;;6272361;22;20334;-69
2023/06/11 02:43:11;;;;;;;5.50;2.30;;;13.60;68.20;;;;;;6273619;22;20015;-68
2023/06/11 02:45:39;;;;;;;7.07;1.95;;;13.60;67.00;;;;;;6272498;22;20069;-68
2023/06/11 02:48:06;;;;;;;2.95;1.85;;;13.70;66.70;;;;;;6273149;22;20319;-67
2023/06/11 07:18:02;;;;;;;7.82;2.15;;;14.30;71.80;;;;;;6269510;22;20091;-68
2023/06/11 07:20:29;;;;;;;7.18;1.90;;;14.30;72.00;;;;;;6270727;22;20015;-68
2023/06/11 07:22:59;;;;;;;9.80;2.10;;;14.20;72.20;;;;;;6270501;22;20000;-69
2023/06/11 07:25:30;;;;;;;7.38;2.33;;;14.20;72.50;;;;;;6270271;22;20110;-70
2023/06/11 07:28:01;;;;;;;6.80;2.00;;;14.20;72.60;;;;;;6269490;22;20405;-68
2023/06/11 07:30:29;;;;;;;13.00;2.22;;;14.20;72.80;;;;;;6267636;22;20007;-68
2023/06/11 07:32:57;;;;;;;11.45;2.22;;;14.20;73.00;;;;;;6268380;22;20003;-68
2023/06/11 07:35:25;;;;;;;5.28;2.00;;;14.20;73.20;;;;;;6270298;22;20008;-68
2023/06/11 07:37:52;;;;;;;7.50;2.50;;;14.20;73.30;;;;;;6243215;22;20381;-68
2023/06/11 07:40:20;;;;;;;6.00;2.40;;;14.20;73.30;;;;;;6269043;22;20102;-68
2023/06/11 07:42:47;;;;;;;12.05;3.08;;;14.20;73.30;;;;;;6240581;22;20058;-68
2023/06/11 07:45:15;;;;;;;9.40;2.40;;;14.20;73.30;;;;;;6269314;22;20026;-68
2023/06/11 07:47:43;;;;;;;10.65;2.67;;;14.20;73.20;;;;;;6234778;22;20511;-68
2023/06/11 07:50:11;;;;;;;6.75;2.88;;;14.20;73.20;;;;;;6268778;22;20018;-68
2023/06/11 07:52:38;;;;;;;7.82;2.65;;;14.20;73.20;;;;;;6268769;22;20003;-67
2023/06/11 07:55:06;;;;;;;13.48;3.10;;;14.20;73.20;;;;;;6270151;22;20007;-68
2023/06/11 07:57:34;;;;;;;8.10;2.50;;;14.20;73.30;;;;;;6266842;22;20007;-68
2023/06/11 08:00:03;;;;;;;8.15;2.70;;;14.10;73.40;;;;;;6266253;22;20011;-68
2023/06/11 08:02:30;;;;;;;10.02;2.90;;;14.10;73.40;;;;;;6268857;22;20023;-68
2023/06/11 08:04:58;;;;;;;7.53;2.60;;;14.10;73.50;;;;;;6270048;22;20438;-67
2023/06/11 08:07:25;;;;;;;8.27;2.65;;;14.00;73.60;;;;;;6269098;22;20011;-69
2023/06/11 08:09:52;;;;;;;9.68;3.47;;;14.00;73.80;;;;;;6268363;22;20014;-71
2023/06/11 08:12:20;;;;;;;8.05;3.25;;;14.00;73.80;;;;;;6267621;22;20324;-70
2023/06/11 08:14:48;;;;;;;7.40;3.47;;;14.00;73.80;;;;;;6270091;22;20017;-69
2023/06/11 08:17:16;;;;;;;9.50;3.67;;;14.00;73.90;;;;;;6263018;22;20020;-69
2023/06/11 08:19:43;;;;;;;9.18;3.65;;;14.00;74.10;;;;;;6267566;22;20039;-68
2023/06/11 08:22:11;;;;;;;8.85;3.30;;;13.90;74.30;;;;;;6268686;22;20035;-69
2023/06/11 08:24:38;;;;;;;11.35;3.67;;;13.90;74.40;;;;;;6270181;22;20095;-67
2023/06/11 08:27:08;;;;;;;10.18;3.80;;;13.90;74.50;;;;;;6244117;22;20514;-68
2023/06/11 08:29:35;;;;;;;8.32;3.35;;;13.80;74.50;;;;;;6271040;22;20020;-68
2023/06/11 08:32:03;;;;;;;9.65;3.45;;;13.80;74.70;;;;;;6270834;22;20004;-68
2023/06/11 08:34:31;;;;;;;7.70;2.88;;;13.80;74.80;;;;;;6271208;22;20008;-68
2023/06/11 08:36:58;;;;;;;9.30;3.25;;;13.80;75.00;;;;;;6271724;22;20010;-68
2023/06/11 08:39:26;;;;;;;6.57;2.75;;;13.70;75.10;;;;;;6270889;22;20019;-68
2023/06/11 08:41:54;;;;;;;10.13;3.17;;;13.70;75.30;;;;;;6270580;22;20011;-68
2023/06/11 08:44:22;;;;;;;8.88;2.78;;;13.70;75.40;;;;;;6243915;22;20011;-68
2023/06/11 10:51:37;;;;;;;13.13;5.40;;;12.70;82.00;;;;;;6268064;22;20485;-67
2023/06/11 10:54:08;;;;;;;13.00;5.68;;;12.70;82.60;;;;;;6272580;22;20019;-69
2023/06/11 10:56:38;;;;;;;12.10;6.10;;;12.70;82.70;;;;;;6271959;22;20086;-66
2023/06/11 10:59:09;;;;;;;10.07;5.38;;;12.70;83.00;;;;;;6270150;22;20046;-66
2023/06/11 11:01:37;;;;;;;13.95;6.47;;;12.70;83.10;;;;;;6271401;22;20079;-69
2023/06/11 11:04:04;;;;;;;11.98;5.65;;;12.70;83.20;;;;;;6270876;22;20003;-68
2023/06/11 11:06:34;;;;;;;14.88;6.43;;;12.70;83.20;;;;;;6245187;22;20011;-67
2023/06/11 11:09:02;;;;;;;12.18;5.70;;;12.70;83.30;;;;;;6271872;22;20000;-69
2023/06/11 11:11:30;;;;;;;9.75;5.72;;;12.70;83.30;;;;;;6272767;22;20102;-69
2023/06/11 11:14:03;;;;;;;14.25;5.88;;;12.70;83.30;;;;;;6246372;22;20038;-67
2023/06/11 11:16:30;;;;;;;13.27;5.80;;;12.60;83.40;;;;;;6270425;22;20034;-66
2023/06/11 11:18:58;;;;;;;10.68;5.93;;;12.70;83.40;;;;;;6271494;22;20075;-68
2023/06/11 11:21:29;;;;;;;15.00;5.50;;;12.60;83.50;;;;;;6270995;22;20158;-69
2023/06/11 11:23:57;;;;;;;12.57;6.18;;;12.60;83.60;;;;;;6271845;22;20012;-70
2023/06/11 11:26:25;;;;;;;15.55;6.60;;;12.60;83.70;;;;;;6272222;22;20645;-68
2023/06/11 11:28:52;;;;;;;13.32;6.55;;;12.60;83.80;;;;;;6272699;22;20000;-68
2023/06/11 11:31:20;;;;;;;11.02;5.70;;;12.60;83.80;;;;;;6275158;22;20031;-69
2023/06/11 11:33:50;;;;;;;13.10;6.72;;;12.50;84.20;;;;;;6275039;22;19999;-68
2023/06/11 11:36:17;;;;;;;10.18;5.65;;;12.40;84.30;;;;;;6248739;22;20007;-69
2023/06/11 11:38:45;;;;;;;14.70;6.03;;;12.40;84.10;;;;;;6247712;22;20007;-69
2023/06/11 11:41:12;;;;;;;13.27;6.53;;;12.30;84.10;;;;;;6274465;22;20027;-69
2023/06/11 11:43:43;;;;;;;10.98;6.15;;;12.30;84.10;;;;;;6274718;22;20011;-69
2023/06/11 11:46:16;;;;;;;14.25;6.00;;;12.30;84.10;;;;;;6275009;22;20118;-69
2023/06/11 11:48:43;;;;;;;18.20;6.97;;;12.30;83.90;;;;;;6275515;22;20006;-68
2023/06/11 11:51:13;;;;;;;13.63;7.60;;;12.30;83.70;;;;;;6247552;22;20023;-68
2023/06/11 11:53:41;;;;;;;15.52;7.78;;;12.20;83.40;;;;;;6247786;22;20004;-67
2023/06/11 11:56:08;;;;;;;15.43;7.95;;;12.20;83.50;;;;;;6275325;22;20007;-69
2023/06/11 11:58:37;;;;;;;16.88;8.15;;;12.20;83.50;;;;;;6275479;22;20004;-68
2023/06/11 12:01:08;;;;;;;18.63;8.20;;;12.20;83.70;;;;;;6274822;22;20434;-69
2023/06/11 12:03:36;;;;;;;15.38;7.18;;;12.20;83.80;;;;;;6273811;22;20430;-69
2023/06/11 12:06:06;;;;;;;15.00;6.80;;;12.20;83.70;;;;;;6275114;22;20019;-69
2023/06/11 12:08:34;;;;;;;12.48;6.68;;;12.10;83.60;;;;;;6275537;22;20004;-69
2023/06/11 12:11:06;;;;;;;10.02;6.25;;;12.10;83.80;;;;;;6275894;22;20276;-69
2023/06/11 12:13:34;;;;;;;12.60;6.43;;;12.10;84.00;;;;;;6247238;22;19995;-69
2023/06/11 12:16:01;;;;;;;14.88;6.70;;;12.10;84.00;;;;;;6273148;22;20008;-67
2023/06/11 12:18:29;;;;;;;16.77;6.70;;;12.10;84.10;;;;;;6272745;22;20315;-69
2023/06/11 12:20:56;;;;;;;16.70;6.53;;;12.10;84.20;;;;;;6273968;22;20472;-70
2023/06/11 12:23:24;;;;;;;15.57;6.22;;;12.20;84.20;;;;;;6274215;22;20003;-69
2023/06/11 12:25:52;;;;;;;9.27;5.82;;;12.10;84.20;;;;;;6274125;22;20118;-68
2023/06/11 12:28:19;;;;;;;11.18;6.45;;;12.20;84.20;;;;;;6274707;22;20008;-68
2023/06/11 12:30:47;;;;;;;10.55;5.50;;;12.20;84.10;;;;;;6274618;22;20019;-69
2023/06/11 12:33:15;;;;;;;14.73;5.20;;;12.20;84.10;;;;;;6273634;22;20058;-69
2023/06/11 12:35:43;;;;;;;12.93;5.40;;;12.20;84.00;;;;;;6274251;22;20007;-69
2023/06/11 12:38:10;;;;;;;16.80;5.32;;;12.20;84.00;;;;;;6274473;22;20008;-69
2023/06/11 12:40:38;;;;;;;10.35;5.22;;;12.20;83.90;;;;;;6274696;22;20004;-68
2023/06/11 12:43:05;;;;;;;13.48;5.07;;;12.20;84.20;;;;;;6274424;22;20004;-69
2023/06/11 12:45:37;;;;;;;10.95;5.68;;;12.20;84.10;;;;;;6274759;22;20026;-69
2023/06/11 12:48:05;;;;;;;14.93;5.78;;;12.20;84.00;;;;;;6274312;22;20354;-69
2023/06/11 12:50:32;;;;;;;11.68;5.20;;;12.20;83.90;;;;;;6275110;22;20011;-69
2023/06/11 12:53:00;;;;;;;11.82;5.40;;;12.20;83.90;;;;;;6273810;22;20468;-69
2023/06/11 12:55:27;;;;;;;10.48;4.80;;;12.20;83.90;;;;;;6274309;22;20038;-69
2023/06/11 12:57:55;;;;;;;11.88;5.07;;;12.20;83.90;;;;;;6274372;22;20002;-69
2023/06/11 13:00:24;;;;;;;9.90;4.80;;;12.10;84.00;;;;;;6273929;22;20008;-69
2023/06/11 13:02:52;;;;;;;12.50;5.28;;;12.10;84.00;;;;;;6274282;22;19996;-69
2023/06/11 13:05:21;;;;;;;15.40;6.07;;;12.10;84.00;;;;;;6274234;22;20022;-69
2023/06/11 13:07:48;;;;;;;11.48;5.63;;;12.10;83.90;;;;;;6273413;22;20053;-69
2023/06/11 13:10:16;;;;;;;15.80;6.57;;;12.10;83.90;;;;;;6274541;22;20008;-69
2023/06/11 13:12:44;;;;;;;14.68;7.38;;;12.00;83.80;;;;;;6273589;22;20011;-69
2023/06/11 13:15:12;;;;;;;16.15;7.28;;;12.10;83.80;;;;;;6274782;22;20003;-69
2023/06/11 13:17:39;;;;;;;20.63;7.90;;;12.00;84.10;;;;;;6274288;22;20378;-69
2023/06/11 13:20:07;;;;;;;16.92;8.93;;;12.00;84.10;;;;;;6275071;22;20015;-69
2023/06/11 13:22:34;;;;;;;16.27;9.13;;;11.90;83.90;;;;;;6274457;22;20133;-69
2023/06/11 13:25:02;;;;;;;23.67;9.88;;;11.90;83.80;;;;;;6273936;22;20142;-69
2023/06/11 13:27:29;;;;;;;18.75;8.95;;;11.90;83.60;;;;;;6274222;22;20003;-69
2023/06/11 13:29:58;;;;;;;17.48;8.95;;;11.90;83.20;;;;;;6274039;22;20004;-69
2023/06/11 13:32:26;;;;;;;18.13;9.38;;;11.80;83.40;;;;;;6274542;22;20030;-69
2023/06/11 13:34:53;;;;;;;16.48;9.27;;;11.80;83.40;;;;;;6274598;22;20010;-69
2023/06/11 13:37:21;;;;;;;15.85;9.45;;;11.70;83.20;;;;;;6275095;22;20031;-69
2023/06/11 13:39:48;;;;;;;13.82;9.02;;;11.70;83.30;;;;;;6274631;22;20000;-69
2023/06/11 13:42:16;;;;;;;17.13;9.73;;;11.70;83.30;;;;;;6273866;22;20331;-69
2023/06/11 13:44:44;;;;;;;17.23;9.93;;;11.60;83.50;;;;;;6273798;22;20134;-69
2023/06/11 13:47:12;;;;;;;17.45;9.48;;;11.60;83.60;;;;;;6273847;22;20018;-69
2023/06/11 13:49:39;;;;;;;17.10;8.63;;;11.60;83.60;;;;;;6274318;22;20006;-69
2023/06/11 13:52:07;;;;;;;19.55;9.95;;;11.60;83.60;;;;;;6274421;22;20084;-69
2023/06/11 13:54:34;;;;;;;14.25;8.90;;;11.50;83.70;;;;;;6274285;22;19999;-69
2023/06/11 13:57:02;;;;;;;15.82;9.20;;;11.50;83.70;;;;;;6274952;22;20085;-69
2023/06/11 13:59:31;;;;;;;17.30;8.85;;;11.40;83.70;;;;;;6273726;22;19992;-69
2023/06/11 14:02:01;;;;;;;18.88;9.20;;;11.50;83.70;;;;;;6273948;22;20004;-69
2023/06/11 14:04:29;;;;;;;16.45;9.30;;;11.50;83.70;;;;;;6274750;22;20012;-69
2023/06/11 14:06:56;;;;;;;16.67;8.50;;;11.50;83.70;;;;;;6274139;22;20011;-69
2023/06/11 14:09:23;;;;;;;19.42;9.18;;;11.50;83.80;;;;;;6247680;22;20007;-69
2023/06/11 14:11:51;;;;;;;15.73;8.23;;;11.50;83.80;;;;;;6273301;22;20031;-69
2023/06/11 14:14:18;;;;;;;16.73;9.15;;;11.50;83.80;;;;;;6274197;22;20003;-69
2023/06/11 14:16:46;;;;;;;18.05;9.00;;;11.50;83.70;;;;;;6273563;22;20050;-68
2023/06/11 14:19:13;;;;;;;16.20;7.93;;;11.40;83.60;;;;;;6273569;22;20061;-69
2023/06/11 14:21:40;;;;;;;15.05;8.60;;;11.40;83.80;;;;;;6274423;22;20031;-69
2023/06/11 14:24:09;;;;;;;13.07;7.00;;;11.40;83.70;;;;;;6274631;22;20015;-69
2023/06/11 14:26:36;;;;;;;15.90;7.80;;;11.40;83.30;;;;;;6274490;22;20016;-69
2023/06/11 14:29:05;;;;;;;15.43;7.38;;;11.30;83.30;;;;;;6273163;22;20434;-69
2023/06/11 14:31:35;;;;;;;13.68;7.47;;;11.30;83.40;;;;;;6274365;22;20004;-69
2023/06/11 14:34:02;;;;;;;14.15;7.10;;;11.30;83.70;;;;;;6274273;22;20054;-68
2023/06/11 14:36:30;;;;;;;14.43;7.47;;;11.30;83.50;;;;;;6274403;22;20003;-69
2023/06/11 14:38:59;;;;;;;15.45;7.45;;;11.30;83.50;;;;;;6246449;22;20022;-69
2023/06/11 14:41:26;;;;;;;14.98;7.50;;;11.20;83.40;;;;;;6274512;22;20126;-69
2023/06/11 14:43:53;;;;;;;13.20;7.28;;;11.20;83.40;;;;;;6276165;22;20031;-69
2023/06/11 14:46:22;;;;;;;15.65;7.28;;;11.20;83.30;;;;;;6276346;22;20015;-69
2023/06/11 14:48:49;;;;;;;17.15;6.30;;;11.20;83.30;;;;;;6275795;22;20078;-69
2023/06/11 14:51:17;;;;;;;17.00;7.00;;;11.20;83.60;;;;;;6275578;22;20061;-69
2023/06/11 14:53:44;;;;;;;12.50;7.15;;;11.20;83.60;;;;;;6276579;22;20312;-69
2023/06/11 14:56:11;;;;;;;19.30;7.00;;;11.20;83.60;;;;;;6276226;22;20011;-69
2023/06/11 14:58:39;;;;;;;14.07;6.75;;;11.20;83.30;;;;;;6275977;22;20083;-69
2023/06/11 15:01:07;;;;;;;11.82;6.25;;;11.10;83.80;;;;;;6276352;22;20399;-69
2023/06/11 15:03:35;;;;;;;18.52;7.55;;;11.10;83.60;;;;;;6249310;22;20011;-69
2023/06/11 15:06:02;;;;;;;12.10;6.47;;;11.00;83.60;;;;;;6275939;22;20034;-69
2023/06/11 15:08:30;;;;;;;13.23;6.82;;;11.00;83.50;;;;;;6275793;22;20007;-69
2023/06/11 15:10:57;;;;;;;10.93;6.25;;;11.10;83.50;;;;;;6275954;22;20015;-69
2023/06/11 15:13:25;;;;;;;17.38;6.93;;;11.00;83.60;;;;;;6275837;22;20000;-69
2023/06/11 15:15:52;;;;;;;12.38;6.38;;;10.90;83.80;;;;;;6249700;22;20004;-69
2023/06/11 15:18:20;;;;;;;14.82;6.72;;;11.00;84.00;;;;;;6275006;22;20090;-69
2023/06/11 15:20:48;;;;;;;13.02;6.57;;;10.90;83.80;;;;;;6275783;22;20011;-69
2023/06/11 15:23:15;;;;;;;16.67;7.20;;;10.90;83.80;;;;;;6274881;22;20008;-69
2023/06/11 15:25:42;;;;;;;16.80;7.18;;;10.90;83.90;;;;;;6276111;22;20082;-69
2023/06/11 15:28:10;;;;;;;16.55;6.97;;;10.90;83.90;;;;;;6275842;22;20407;-69
2023/06/11 15:30:37;;;;;;;16.23;7.00;;;10.90;84.20;;;;;;6275544;22;20011;-69
2023/06/11 15:33:05;;;;;;;13.73;7.00;;;10.90;83.90;;;;;;6276340;22;20422;-69
2023/06/11 15:35:32;;;;;;;13.63;6.97;;;10.80;84.10;;;;;;6276167;22;20015;-69
2023/06/11 15:38:00;;;;;;;14.30;6.70;;;10.80;84.20;;;;;;6275577;22;20011;-69
2023/06/11 15:40:28;;;;;;;15.57;7.18;;;10.70;84.30;;;;;;6275154;22;20304;-69
2023/06/11 15:42:55;;;;;;;12.70;6.97;;;10.70;84.30;;;;;;6275388;22;20004;-69
2023/06/11 15:45:23;;;;;;;11.73;6.72;;;10.70;84.30;;;;;;6276610;22;20007;-69
2023/06/11 15:47:51;;;;;;;19.13;7.40;;;10.70;84.30;;;;;;6263522;22;20004;-69
2023/06/11 15:50:18;;;;;;;12.68;6.38;;;10.70;84.60;;;;;;6272700;22;20014;-69
2023/06/11 15:52:47;;;;;;;16.08;7.22;;;10.70;84.60;;;;;;6272786;22;20012;-69
2023/06/11 15:55:14;;;;;;;14.00;6.28;;;10.70;84.50;;;;;;6273370;22;20022;-69
2023/06/11 15:57:43;;;;;;;16.08;7.20;;;10.70;84.70;;;;;;6272561;22;19999;-69
2023/06/11 16:00:11;;;;;;;15.95;6.53;;;10.70;84.80;;;;;;6273504;22;20007;-69
2023/06/11 16:02:39;;;;;;;18.08;7.20;;;10.70;84.90;;;;;;6273024;22;20027;-69
2023/06/11 16:05:07;;;;;;;15.43;6.82;;;10.70;84.90;;;;;;6246715;22;20015;-69
2023/06/11 16:07:34;;;;;;;14.57;7.55;;;10.70;84.60;;;;;;6273044;22;20014;-69
2023/06/11 16:10:02;;;;;;;19.10;7.85;;;10.60;84.60;;;;;;6246401;22;20003;-69
2023/06/11 16:12:29;;;;;;;18.40;8.10;;;10.60;84.90;;;;;;6273520;22;20419;-69
2023/06/11 16:14:57;;;;;;;19.63;8.35;;;10.70;85.20;;;;;;6273469;22;20003;-70
2023/06/11 16:17:24;;;;;;;13.88;7.80;;;10.70;85.40;;;;;;6266888;22;20007;-70
2023/06/11 16:19:52;;;;;;;11.88;7.53;;;10.70;85.30;;;;;;6273502;22;20003;-70
2023/06/11 16:22:19;;;;;;;15.57;7.82;;;10.70;85.30;;;;;;6273278;22;20443;-70
2023/06/11 16:24:47;;;;;;;19.10;8.38;;;10.70;85.30;;;;;;6272764;22;20012;-70
2023/06/11 16:27:14;;;;;;;14.45;7.57;;;10.60;85.40;;;;;;6272038;22;20016;-70
2023/06/11 16:29:42;;;;;;;18.27;8.30;;;10.50;85.60;;;;;;6272040;22;20427;-69
2023/06/11 16:32:11;;;;;;;17.08;8.45;;;10.50;85.50;;;;;;6274056;22;20032;-70
2023/06/11 16:34:39;;;;;;;17.42;7.57;;;10.50;85.70;;;;;;6275265;22;20000;-67
2023/06/11 16:37:06;;;;;;;15.05;7.85;;;10.50;85.80;;;;;;6274768;22;19999;-67
2023/06/11 16:39:34;;;;;;;14.73;7.60;;;10.40;85.90;;;;;;6274453;22;20011;-68
2023/06/11 16:42:02;;;;;;;17.15;8.00;;;10.50;85.90;;;;;;6273784;22;20075;-67
2023/06/11 16:44:29;;;;;;;16.85;7.78;;;10.50;86.10;;;;;;6247381;22;19999;-67
2023/06/11 16:46:56;;;;;;;19.80;8.57;;;10.40;86.10;;;;;;6274288;22;20008;-67
2023/06/11 16:49:24;;;;;;;16.98;8.00;;;10.40;86.20;;;;;;6271623;22;20031;-67
2023/06/11 16:51:51;;;;;;;15.07;8.00;;;10.30;85.90;;;;;;6271863;22;20094;-70
2023/06/11 16:54:19;;;;;;;14.80;8.43;;;10.30;86.10;;;;;;6273018;22;20004;-70
2023/06/11 16:56:46;;;;;;;16.52;8.07;;;10.20;86.00;;;;;;6272770;22;20382;-70
2023/06/11 16:59:14;;;;;;;17.58;8.43;;;10.20;86.30;;;;;;6272672;22;20038;-70
2023/06/11 17:01:41;;;;;;;14.85;8.23;;;10.20;86.20;;;;;;6272058;22;20007;-70
2023/06/11 17:04:09;;;;;;;17.45;8.70;;;10.20;86.30;;;;;;6275156;22;20000;-70
2023/06/11 17:06:36;;;;;;;15.55;8.75;;;10.20;86.40;;;;;;6274688;22;20011;-70
2023/06/11 17:09:04;;;;;;;17.38;8.30;;;10.10;86.60;;;;;;6274147;22;20000;-70
2023/06/11 17:11:31;;;;;;;18.42;9.50;;;10.10;86.50;;;;;;6274100;22;20012;-70
2023/06/11 17:13:59;;;;;;;18.15;9.52;;;10.10;86.60;;;;;;6274227;22;20020;-70
2023/06/11 17:16:26;;;;;;;16.33;9.55;;;10.10;86.50;;;;;;6275541;22;20004;-70
2023/06/11 17:18:53;;;;;;;17.50;9.25;;;10.10;86.50;;;;;;6274494;22;20008;-70
2023/06/11 17:21:21;;;;;;;19.52;9.70;;;10.20;86.40;;;;;;6274472;22;20004;-70
2023/06/11 17:23:48;;;;;;;16.73;10.00;;;10.20;86.40;;;;;;6274394;22;20000;-70
2023/06/11 17:26:16;;;;;;;22.40;9.85;;;10.10;86.40;;;;;;6275269;22;20011;-70
2023/06/11 17:28:43;;;;;;;15.80;9.55;;;10.10;86.50;;;;;;6274558;22;20100;-70
2023/06/11 17:31:12;;;;;;;19.83;9.68;;;10.10;86.40;;;;;;6274675;22;20007;-70
2023/06/11 17:33:40;;;;;;;17.55;9.80;;;10.00;86.40;;;;;;6274869;22;20018;-70
2023/06/11 17:36:08;;;;;;;19.63;10.02;;;10.00;86.50;;;;;;6274332;22;20363;-70
2023/06/11 17:38:35;;;;;;;16.65;10.07;;;10.10;86.50;;;;;;6274047;22;20050;-70
2023/06/11 17:41:03;;;;;;;20.05;11.10;;;10.10;86.50;;;;;;6274668;22;20010;-70
2023/06/11 17:43:30;;;;;;;24.60;11.52;;;10.10;86.60;;;;;;6275233;22;20060;-70
2023/06/11 17:45:57;;;;;;;19.95;11.40;;;10.20;86.70;;;;;;6275241;22;20012;-70
2023/06/11 17:48:25;;;;;;;21.00;11.63;;;10.20;86.70;;;;;;6274472;22;19995;-70
2023/06/11 17:50:52;;;;;;;22.63;12.10;;;10.20;86.80;;;;;;6274512;22;20008;-70
2023/06/11 17:53:20;;;;;;;20.55;11.55;;;10.20;86.70;;;;;;6275056;22;20038;-70
2023/06/11 17:55:47;;;;;;;17.88;10.88;;;10.20;86.80;;;;;;6275155;22;20050;-70
2023/06/11 17:58:15;;;;;;;22.77;12.43;;;10.10;86.70;;;;;;6273410;22;20000;-70
2023/06/11 18:00:42;;;;;;;21.48;12.13;;;10.10;86.70;;;;;;6274748;22;20015;-70
2023/06/11 18:03:09;;;;;;;21.73;11.90;;;10.10;86.80;;;;;;6274478;22;20011;-70
2023/06/11 18:05:37;;;;;;;23.17;12.00;;;10.10;86.60;;;;;;6274333;22;20015;-70
2023/06/11 18:08:04;;;;;;;22.65;12.00;;;10.10;86.70;;;;;;6274509;22;20004;-70
2023/06/11 18:10:32;;;;;;;20.48;11.00;;;10.10;86.50;;;;;;6274570;22;20407;-70
2023/06/11 18:13:01;;;;;;;28.95;11.60;;;10.10;86.60;;;;;;6274737;22;20014;-70
2023/06/11 18:15:28;;;;;;;18.60;11.18;;;10.00;86.20;;;;;;6274939;22;20099;-70
2023/06/11 18:17:56;;;;;;;18.65;11.05;;;10.00;86.10;;;;;;6275919;22;20004;-70
2023/06/11 18:20:23;;;;;;;21.33;11.00;;;10.10;86.00;;;;;;6276432;22;20050;-70
2023/06/11 18:22:51;;;;;;;17.67;10.63;;;10.00;85.90;;;;;;6276792;22;19996;-70
2023/06/11 18:25:18;;;;;;;18.13;10.50;;;10.00;86.00;;;;;;6276708;22;20015;-70
2023/06/11 18:27:46;;;;;;;21.27;10.55;;;10.00;85.60;;;;;;6276413;22;20074;-70
2023/06/11 18:30:14;;;;;;;19.10;10.70;;;10.00;85.80;;;;;;6276476;22;20007;-70
2023/06/11 18:32:42;;;;;;;19.80;10.10;;;10.00;85.60;;;;;;6276300;22;20031;-70
2023/06/11 18:35:09;;;;;;;22.15;10.38;;;10.00;85.60;;;;;;6275608;22;20477;-70
2023/06/11 18:37:37;;;;;;;16.02;10.38;;;9.90;85.60;;;;;;6275974;22;20003;-70
2023/06/11 18:40:05;;;;;;;19.35;10.23;;;9.90;85.70;;;;;;6276322;22;20062;-70
2023/06/11 18:42:33;;;;;;;21.33;10.38;;;9.80;85.60;;;;;;6276666;22;20006;-70
2023/06/11 18:54:37;;;;;;;;;;;9.70;86.00;;;;;;6274787;22;20085;-70
2023/06/11 18:57:08;;;;;;;18.50;10.48;;;9.70;85.70;;;;;;6275619;22;19908;-70
2023/06/11 18:59:36;;;;;;;23.45;11.43;;;9.70;85.80;;;;;;6275698;22;20038;-70
2023/06/11 19:02:05;;;;;;;19.13;11.18;;;9.70;86.10;;;;;;6273728;22;20022;-69
2023/06/11 19:04:33;;;;;;;19.90;11.77;;;9.60;85.80;;;;;;6272896;22;20011;-69
2023/06/11 19:07:00;;;;;;;20.52;11.52;;;9.60;85.80;;;;;;6272861;22;20019;-69
2023/06/11 19:09:28;;;;;;;18.38;10.60;;;9.60;85.70;;;;;;6271764;22;20010;-67
2023/06/11 19:11:55;;;;;;;20.48;10.95;;;9.60;86.00;;;;;;6273219;22;20011;-67
2023/06/11 19:14:22;;;;;;;24.17;11.98;;;9.50;86.10;;;;;;6272505;22;20700;-66
2023/06/11 19:16:50;;;;;;;19.15;11.30;;;9.50;86.10;;;;;;6271321;22;20034;-67
2023/06/11 19:19:17;;;;;;;18.65;11.50;;;9.60;86.00;;;;;;6272172;22;20007;-67
2023/06/11 19:21:45;;;;;;;20.00;11.98;;;9.60;86.20;;;;;;6272259;22;20089;-68
2023/06/11 19:24:14;;;;;;;21.52;12.07;;;9.60;86.20;;;;;;6273167;22;20004;-67
2023/06/11 19:26:43;;;;;;;21.42;12.45;;;9.60;86.10;;;;;;6245033;22;20024;-71
2023/06/11 19:29:10;;;;;;;19.00;11.60;;;9.60;86.00;;;;;;6245093;22;20095;-71
2023/06/11 19:31:38;;;;;;;19.25;10.98;;;9.60;86.10;;;;;;6272762;22;20007;-70
2023/06/11 19:34:05;;;;;;;20.80;11.23;;;9.60;86.00;;;;;;6268896;22;20567;-71
2023/06/11 19:36:33;;;;;;;19.30;11.30;;;9.60;86.00;;;;;;6272237;22;20038;-71
2023/06/11 19:39:00;;;;;;;20.15;11.52;;;9.50;85.60;;;;;;6270863;22;20012;-70
2023/06/11 19:41:29;;;;;;;21.52;11.20;;;9.50;85.70;;;;;;6273215;22;19999;-69
2023/06/11 19:44:00;;;;;;;20.98;11.02;;;9.40;85.70;;;;;;6272518;22;20096;-70
2023/06/11 19:46:33;;;;;;;23.25;11.43;;;9.40;85.70;;;;;;6271993;22;20026;-70
2023/06/11 19:49:02;;;;;;;18.05;11.15;;;9.40;85.80;;;;;;6271321;22;20342;-70
2023/06/11 19:51:29;;;;;;;20.23;12.07;;;9.40;85.80;;;;;;6272066;22;20342;-70
2023/06/11 19:53:58;;;;;;;21.02;11.13;;;9.40;86.00;;;;;;6271608;22;20039;-69
2023/06/11 19:56:25;;;;;;;22.08;11.27;;;9.40;86.00;;;;;;6271573;22;20008;-69
2023/06/11 19:58:53;;;;;;;16.73;11.02;;;9.40;86.00;;;;;;6271765;22;20010;-69